createdAt,value
2017-10-19T00:07:22.531Z,2.94
2017-10-19T00:16:59.684Z,2.94
2017-10-19T00:26:36.798Z,2.94
2017-10-19T00:36:14.200Z,2.94
2017-10-19T00:45:51.078Z,2.94
2017-10-19T00:55:28.098Z,2.94
2017-10-19T01:05:05.252Z,2.94
2017-10-19T01:14:43.399Z,2.93
2017-10-19T01:24:20.132Z,2.93
2017-10-19T01:33:57.323Z,2.93
2017-10-19T01:43:34.633Z,2.93
2017-10-19T01:53:11.956Z,2.93
2017-10-19T02:02:48.971Z,2.93
2017-10-19T02:12:26.209Z,2.93
2017-10-19T02:22:03.475Z,2.93
2017-10-19T02:31:40.442Z,2.93
2017-10-19T02:41:17.611Z,2.93
2017-10-19T02:50:54.474Z,2.93
2017-10-19T03:00:32.398Z,2.93
2017-10-19T03:10:10.645Z,2.93
2017-10-19T03:19:47.891Z,2.93
2017-10-19T03:29:25.089Z,2.93
2017-10-19T03:39:02.054Z,2.93
2017-10-19T03:48:39.998Z,2.93
2017-10-19T03:58:17.307Z,2.93
2017-10-19T04:07:54.013Z,2.92
2017-10-19T04:17:32.152Z,2.93
2017-10-19T04:27:09.242Z,2.93
2017-10-19T04:36:46.741Z,2.93
2017-10-19T04:46:23.563Z,2.92
2017-10-19T04:56:01.169Z,2.92
2017-10-19T05:05:38.262Z,2.92
2017-10-19T05:15:20.316Z,2.92
2017-10-19T05:24:51.454Z,2.92
2017-10-19T05:34:28.663Z,2.91
2017-10-19T05:44:09.990Z,2.92
2017-10-19T05:53:41.168Z,2.92
2017-10-19T06:03:18.370Z,2.92
2017-10-19T06:12:56.389Z,2.92
2017-10-19T06:22:34.460Z,2.92
2017-10-19T06:32:12.058Z,2.89
2017-10-19T06:41:54.787Z,2.92
2017-10-19T06:51:26.640Z,2.93
2017-10-19T07:01:04.983Z,2.93
2017-10-19T07:10:43.300Z,2.93
2017-10-19T07:20:21.678Z,2.93
2017-10-19T07:29:59.711Z,2.94
2017-10-19T07:39:37.764Z,2.94
2017-10-19T07:49:15.670Z,2.94
2017-10-19T07:58:54.083Z,2.94
2017-10-19T08:08:32.818Z,2.94
2017-10-19T08:18:10.621Z,2.94
2017-10-19T08:27:49.924Z,2.94
2017-10-19T08:37:28.541Z,2.94
2017-10-19T08:47:06.641Z,2.94
2017-10-19T08:56:45.477Z,2.95
2017-10-19T09:06:23.659Z,2.94
2017-10-19T09:16:01.981Z,2.95
2017-10-19T09:25:40.280Z,2.95
2017-10-19T09:35:18.891Z,2.95
2017-10-19T09:44:58.421Z,2.95
2017-10-19T09:54:36.632Z,2.95
2017-10-19T10:04:15.218Z,2.95
2017-10-19T10:13:53.221Z,2.95
2017-10-19T10:23:31.977Z,2.96
2017-10-19T10:33:14.258Z,2.96
2017-10-19T10:42:46.932Z,2.96
2017-10-19T10:52:25.955Z,2.96
2017-10-19T11:02:04.889Z,2.96
2017-10-19T11:11:43.113Z,2.96
2017-10-19T11:21:20.876Z,2.96
2017-10-19T11:31:00.453Z,2.96
2017-10-19T11:40:38.505Z,2.96
2017-10-19T11:50:16.226Z,2.96
2017-10-19T11:59:54.443Z,2.96
2017-10-19T12:09:31.801Z,2.96
2017-10-19T12:19:08.957Z,2.96
2017-10-19T12:28:53.326Z,2.96
2017-10-19T12:38:32.569Z,2.96
2017-10-19T12:48:11.053Z,2.96
2017-10-19T12:57:50.158Z,2.96
2017-10-19T13:07:31.124Z,2.96
2017-10-19T13:17:09.142Z,2.96
2017-10-19T13:26:48.356Z,2.96
2017-10-19T13:36:28.012Z,2.96
2017-10-19T13:46:07.538Z,2.96
2017-10-19T13:55:46.077Z,2.97
2017-10-19T14:05:17.169Z,2.96
2017-10-19T14:14:51.685Z,2.96
2017-10-19T14:24:28.283Z,2.96
2017-10-19T14:34:04.937Z,2.96
2017-10-19T14:43:43.199Z,2.96
2017-10-19T14:53:20.820Z,2.96
2017-10-19T15:02:58.561Z,2.96
2017-10-19T15:12:40.200Z,2.95
2017-10-19T15:22:11.266Z,2.95
2017-10-19T15:31:50.956Z,2.95
2017-10-19T15:41:20.701Z,2.95
2017-10-19T15:50:57.675Z,2.95
2017-10-19T16:00:34.307Z,2.94
2017-10-19T16:10:10.736Z,2.94
2017-10-19T16:19:47.598Z,2.94
2017-10-19T16:29:24.610Z,2.94
2017-10-19T16:39:02.158Z,2.94
2017-10-19T16:48:43.086Z,2.94
2017-10-19T16:58:13.978Z,2.94
2017-10-19T17:07:50.839Z,2.94
2017-10-19T17:17:27.617Z,2.94
2017-10-19T17:27:04.816Z,2.94
2017-10-19T17:36:41.850Z,2.93
2017-10-19T17:46:22.949Z,2.93
2017-10-19T17:55:58.384Z,2.93
2017-10-19T18:05:29.959Z,2.93
2017-10-19T18:15:10.829Z,2.92
2017-10-19T18:24:42.200Z,2.93
2017-10-19T18:34:23.086Z,2.92
2017-10-19T18:43:54.422Z,2.92
2017-10-19T18:53:36.488Z,2.92
2017-10-19T19:03:07.508Z,2.92
2017-10-19T19:12:44.817Z,2.92
2017-10-19T19:22:21.839Z,2.92
2017-10-19T19:31:59.253Z,2.92
2017-10-19T19:41:36.303Z,2.92
2017-10-19T19:51:13.623Z,2.92
2017-10-19T20:00:50.956Z,2.92
2017-10-19T20:10:28.485Z,2.92
2017-10-19T20:20:09.871Z,2.92
2017-10-19T20:29:45.198Z,2.92
2017-10-19T20:39:20.510Z,2.91
2017-10-19T20:48:55.679Z,2.91
2017-10-19T20:58:31.267Z,2.91
2017-10-19T21:08:06.934Z,2.91
2017-10-19T21:17:41.897Z,2.91
2017-10-19T21:27:17.202Z,2.91
2017-10-19T21:36:52.609Z,2.91
2017-10-19T21:46:27.454Z,2.91
2017-10-19T21:56:02.865Z,2.91
2017-10-19T22:05:38.639Z,2.91
2017-10-19T22:15:13.915Z,2.91
2017-10-19T22:24:49.627Z,2.91
2017-10-19T22:34:24.928Z,2.90
2017-10-19T22:44:00.659Z,2.90
2017-10-19T22:53:36.312Z,2.90
2017-10-19T23:03:11.677Z,2.90
2017-10-19T23:12:47.955Z,2.90
2017-10-19T23:22:23.590Z,2.90
2017-10-19T23:31:58.957Z,2.90
2017-10-19T23:41:34.516Z,2.89
2017-10-19T23:51:09.419Z,2.89
